createdAt,value
2022-07-30T00:04:44.707Z,14.40
2022-07-30T00:09:48.048Z,14.30
2022-07-30T00:14:51.426Z,14.20
2022-07-30T00:19:54.737Z,14.20
2022-07-30T00:24:59.787Z,14.10
2022-07-30T00:30:05.117Z,14.00
2022-07-30T00:35:08.987Z,14.00
2022-07-30T00:40:12.537Z,13.90
2022-07-30T00:45:17.406Z,13.90
2022-07-30T00:50:21.624Z,13.80
2022-07-30T00:55:25.276Z,13.70
2022-07-30T01:00:29.537Z,13.70
2022-07-30T01:05:36.166Z,13.60
2022-07-30T01:10:39.246Z,13.50
2022-07-30T01:15:42.836Z,13.50
2022-07-30T01:21:08.816Z,13.50
2022-07-30T01:26:15.769Z,13.40
2022-07-30T01:31:21.519Z,13.40
2022-07-30T01:36:25.606Z,13.40
2022-07-30T01:41:29.978Z,13.30
2022-07-30T01:46:34.537Z,13.20
2022-07-30T01:51:39.866Z,13.20
2022-07-30T01:56:45.117Z,13.10
2022-07-30T02:01:49.437Z,13.10
2022-07-30T02:07:23.020Z,13.10
2022-07-30T02:12:30.806Z,13.00
2022-07-30T02:17:45.596Z,13.00
2022-07-30T02:22:50.517Z,12.90
2022-07-30T02:27:59.017Z,12.80
2022-07-30T02:33:06.398Z,12.80
2022-07-30T02:38:12.614Z,12.80
2022-07-30T02:43:21.494Z,12.80
2022-07-30T02:48:34.844Z,12.60
2022-07-30T02:53:40.899Z,12.60
2022-07-30T02:58:49.538Z,12.50
2022-07-30T03:03:54.997Z,12.50
2022-07-30T03:09:00.718Z,12.60
2022-07-30T03:14:04.537Z,12.50
2022-07-30T03:19:10.738Z,12.50
2022-07-30T03:24:15.848Z,12.60
2022-07-30T03:29:21.823Z,12.60
2022-07-30T03:34:25.978Z,12.70
2022-07-30T03:39:30.358Z,12.80
2022-07-30T03:44:35.577Z,13.00
2022-07-30T03:49:39.418Z,13.10
2022-07-30T03:54:43.839Z,13.20
2022-07-30T03:59:47.837Z,13.30
2022-07-30T04:04:51.480Z,13.40
2022-07-30T04:09:55.026Z,13.60
2022-07-30T04:14:58.718Z,13.60
2022-07-30T04:20:27.158Z,13.70
2022-07-30T04:25:32.618Z,13.80
2022-07-30T04:30:36.336Z,13.90
2022-07-30T04:35:50.859Z,14.00
2022-07-30T04:40:55.817Z,14.20
2022-07-30T04:45:59.201Z,14.40
2022-07-30T04:51:08.730Z,14.60
2022-07-30T04:56:13.438Z,14.80
2022-07-30T05:01:34.027Z,14.90
2022-07-30T05:06:45.459Z,15.00
2022-07-30T05:11:54.039Z,15.30
2022-07-30T05:16:58.275Z,15.40
2022-07-30T05:22:06.395Z,15.50
2022-07-30T05:27:10.366Z,15.60
2022-07-30T05:32:14.418Z,15.70
2022-07-30T05:37:18.299Z,15.90
2022-07-30T05:42:21.709Z,16.10
2022-07-30T05:47:25.461Z,16.40
2022-07-30T05:52:29.759Z,16.70
2022-07-30T05:57:37.098Z,16.90
2022-07-30T06:02:41.219Z,17.20
2022-07-30T06:07:44.557Z,17.50
2022-07-30T06:12:48.079Z,17.80
2022-07-30T06:18:01.468Z,17.90
2022-07-30T06:23:05.538Z,18.00
2022-07-30T06:28:34.846Z,18.20
2022-07-30T06:33:32.263Z,18.40
2022-07-30T06:38:35.702Z,18.60
2022-07-30T06:43:39.239Z,19.10
2022-07-30T06:48:44.610Z,19.40
2022-07-30T06:53:49.118Z,19.70
2022-07-30T06:58:52.902Z,19.80
2022-07-30T07:03:57.005Z,19.90
2022-07-30T07:09:00.463Z,20.00
2022-07-30T07:14:04.949Z,20.30
2022-07-30T07:19:08.532Z,20.50
2022-07-30T07:24:15.300Z,20.60
2022-07-30T07:29:18.761Z,20.90
2022-07-30T07:34:22.101Z,21.20
2022-07-30T07:39:25.618Z,21.50
2022-07-30T07:44:29.499Z,21.80
2022-07-30T07:49:32.661Z,22.20
2022-07-30T07:54:36.459Z,22.30
2022-07-30T07:59:41.880Z,22.50
2022-07-30T08:04:46.060Z,22.60
2022-07-30T08:09:49.440Z,22.90
2022-07-30T08:14:53.737Z,23.20
2022-07-30T08:20:01.839Z,23.40
2022-07-30T08:25:06.618Z,23.50
2022-07-30T08:30:10.859Z,23.50
2022-07-30T08:35:14.817Z,23.80
2022-07-30T08:40:21.081Z,24.30
2022-07-30T08:45:34.508Z,24.50
2022-07-30T08:50:39.698Z,24.50
2022-07-30T08:55:43.860Z,24.60
2022-07-30T09:00:47.386Z,24.30
2022-07-30T09:05:50.904Z,24.00
2022-07-30T09:10:54.838Z,23.90
2022-07-30T09:15:59.838Z,24.20
2022-07-30T09:21:19.458Z,24.40
2022-07-30T09:26:23.098Z,24.50
2022-07-30T09:31:26.438Z,24.40
2022-07-30T09:36:33.627Z,24.40
2022-07-30T09:41:39.802Z,24.40
2022-07-30T09:46:48.163Z,24.60
2022-07-30T09:52:06.680Z,24.50
2022-07-30T09:57:23.103Z,24.50
2022-07-30T10:02:34.738Z,24.40
2022-07-30T10:07:42.806Z,24.40
2022-07-30T10:12:48.605Z,24.50
2022-07-30T10:17:52.257Z,24.60
2022-07-30T10:22:55.758Z,24.60
2022-07-30T10:28:00.940Z,24.60
2022-07-30T10:33:08.826Z,24.60
2022-07-30T10:38:39.477Z,24.50
2022-07-30T10:44:03.578Z,24.40
2022-07-30T10:49:18.482Z,24.40
2022-07-30T10:54:39.208Z,24.50
2022-07-30T11:00:00.798Z,24.60
2022-07-30T11:05:43.799Z,24.70
2022-07-30T11:10:43.938Z,24.60
2022-07-30T11:16:02.256Z,24.60
2022-07-30T11:21:21.200Z,24.60
2022-07-30T11:26:40.977Z,24.40
2022-07-30T11:31:57.731Z,24.20
2022-07-30T11:37:21.719Z,24.10
2022-07-30T11:42:30.016Z,24.00
2022-07-30T11:47:33.278Z,24.10
2022-07-30T11:52:37.018Z,24.00
2022-07-30T11:57:43.797Z,23.80
2022-07-30T12:02:48.159Z,23.80
2022-07-30T12:07:51.885Z,23.80
2022-07-30T12:13:17.017Z,23.80
2022-07-30T12:18:31.405Z,23.80
2022-07-30T12:23:35.959Z,23.60
2022-07-30T12:28:39.897Z,23.50
2022-07-30T12:33:43.698Z,23.50
2022-07-30T12:38:54.077Z,23.50
2022-07-30T12:43:57.777Z,23.30
2022-07-30T12:49:21.739Z,23.20
2022-07-30T12:54:27.219Z,23.20
2022-07-30T12:59:34.377Z,23.10
2022-07-30T13:04:58.988Z,23.00
2022-07-30T13:10:15.397Z,22.90
2022-07-30T13:15:23.062Z,22.80
2022-07-30T13:20:27.220Z,22.80
2022-07-30T13:25:38.968Z,22.80
2022-07-30T13:30:44.405Z,22.90
2022-07-30T13:35:48.239Z,22.90
2022-07-30T13:40:52.818Z,22.90
2022-07-30T13:45:59.641Z,22.90
2022-07-30T13:51:05.767Z,22.90
2022-07-30T13:56:12.755Z,23.00
2022-07-30T14:01:18.202Z,23.10
2022-07-30T14:06:23.117Z,23.10
2022-07-30T14:11:26.606Z,23.00
2022-07-30T14:16:46.096Z,22.80
2022-07-30T14:21:49.998Z,22.60
2022-07-30T14:26:58.013Z,22.40
2022-07-30T14:32:01.860Z,22.30
2022-07-30T14:37:05.553Z,22.20
2022-07-30T14:42:10.338Z,22.20
2022-07-30T14:47:14.637Z,22.20
2022-07-30T14:52:18.147Z,22.20
2022-07-30T14:57:22.079Z,22.30
2022-07-30T15:02:25.658Z,22.30
2022-07-30T15:07:30.496Z,22.20
2022-07-30T15:12:41.757Z,22.10
2022-07-30T15:17:46.706Z,22.10
2022-07-30T15:22:51.982Z,21.90
2022-07-30T15:27:55.380Z,21.80
2022-07-30T15:32:58.778Z,21.60
2022-07-30T15:38:02.660Z,21.50
2022-07-30T15:43:10.039Z,21.40
2022-07-30T15:48:26.519Z,21.20
2022-07-30T15:53:31.761Z,21.10
2022-07-30T15:58:38.240Z,21.00
2022-07-30T16:03:43.997Z,20.90
2022-07-30T16:08:47.472Z,20.80
2022-07-30T16:13:51.198Z,20.80
2022-07-30T16:18:54.897Z,20.80
2022-07-30T16:23:58.260Z,20.80
2022-07-30T16:29:01.799Z,20.80
2022-07-30T16:34:05.798Z,20.80
2022-07-30T16:39:09.418Z,20.90
2022-07-30T16:44:16.456Z,20.80
2022-07-30T16:49:21.224Z,20.80
2022-07-30T16:54:27.067Z,20.90
2022-07-30T16:59:30.537Z,20.80
2022-07-30T17:04:35.525Z,20.80
2022-07-30T17:09:38.899Z,20.70
2022-07-30T17:14:42.839Z,20.70
2022-07-30T17:19:46.438Z,20.60
2022-07-30T17:24:50.264Z,20.60
2022-07-30T17:29:53.704Z,20.60
2022-07-30T17:34:56.787Z,20.60
2022-07-30T17:40:19.584Z,20.50
2022-07-30T17:45:24.141Z,20.50
2022-07-30T17:50:27.633Z,20.50
2022-07-30T17:55:32.039Z,20.50
2022-07-30T18:00:36.018Z,20.50
2022-07-30T18:05:39.440Z,20.50
2022-07-30T18:10:43.118Z,20.40
2022-07-30T18:15:46.977Z,20.40
2022-07-30T18:20:53.462Z,20.30
2022-07-30T18:25:57.398Z,20.20
2022-07-30T18:31:00.736Z,20.10
2022-07-30T18:36:04.293Z,19.80
2022-07-30T18:41:07.828Z,19.60
2022-07-30T18:46:11.262Z,19.30
2022-07-30T18:51:16.730Z,19.10
2022-07-30T18:56:22.383Z,19.00
2022-07-30T19:01:25.782Z,18.90
2022-07-30T19:06:29.320Z,18.80
2022-07-30T19:11:33.598Z,18.70
2022-07-30T19:16:41.503Z,18.70
2022-07-30T19:21:45.506Z,18.50
2022-07-30T19:26:51.065Z,18.40
2022-07-30T19:31:55.040Z,18.40
2022-07-30T19:36:58.625Z,18.40
2022-07-30T19:42:03.448Z,18.40
2022-07-30T19:47:07.959Z,18.40
2022-07-30T19:52:23.154Z,18.40
2022-07-30T19:57:45.649Z,18.30
2022-07-30T20:02:52.422Z,18.20
2022-07-30T20:08:02.190Z,18.10
2022-07-30T20:13:09.917Z,18.00
2022-07-30T20:18:16.659Z,17.90
2022-07-30T20:23:33.379Z,17.80
2022-07-30T20:28:52.892Z,17.70
2022-07-30T20:33:56.776Z,17.70
2022-07-30T20:39:01.556Z,17.60
2022-07-30T20:44:14.893Z,17.60
2022-07-30T21:02:43.939Z,17.30
2022-07-30T21:41:40.349Z,17.10
2022-07-30T21:46:45.929Z,17.00
2022-07-30T21:51:52.153Z,17.00
2022-07-30T21:56:56.319Z,17.00
2022-07-30T22:02:01.572Z,17.00
2022-07-30T22:07:08.049Z,17.00
2022-07-30T22:12:12.826Z,17.00
2022-07-30T22:17:23.797Z,17.00
2022-07-30T22:22:40.615Z,17.00
2022-07-30T22:27:56.801Z,17.00
2022-07-30T22:33:22.855Z,16.90
2022-07-30T22:38:32.350Z,16.80
2022-07-30T22:43:41.053Z,16.90
2022-07-30T22:48:44.891Z,16.90
2022-07-30T22:54:11.125Z,16.90
2022-07-30T22:59:15.127Z,16.90
2022-07-30T23:04:18.898Z,16.90
2022-07-30T23:09:31.028Z,16.70
2022-07-30T23:14:54.216Z,16.70
2022-07-30T23:19:57.566Z,16.70
2022-07-30T23:25:04.169Z,16.60
2022-07-30T23:30:11.826Z,16.50
2022-07-30T23:35:18.426Z,16.40
2022-07-30T23:40:33.860Z,16.30
2022-07-30T23:45:37.148Z,16.30
2022-07-30T23:50:42.307Z,16.30
2022-07-30T23:55:50.546Z,16.30
